createdAt,value
2018-04-27T00:00:20.861Z,71.50
2018-04-27T00:02:50.967Z,71.68
2018-04-27T00:05:20.311Z,71.44
2018-04-27T00:07:49.712Z,70.47
2018-04-27T00:10:19.019Z,69.67
2018-04-27T00:12:48.354Z,69.74
2018-04-27T00:15:18.453Z,68.81
2018-04-27T00:17:48.097Z,69.70
2018-04-27T00:20:17.414Z,69.74
2018-04-27T00:22:46.743Z,69.88
2018-04-27T00:25:16.059Z,68.47
2018-04-27T00:27:45.397Z,69.26
2018-04-27T00:30:14.749Z,68.37
2018-04-27T00:32:44.086Z,69.32
2018-04-27T00:35:13.427Z,69.26
2018-04-27T00:37:42.762Z,69.48
2018-04-27T00:40:12.105Z,69.29
2018-04-27T00:42:41.469Z,69.29
2018-04-27T00:45:10.884Z,69.51
2018-04-27T00:47:40.253Z,68.93
2018-04-27T00:50:10.297Z,68.78
2018-04-27T00:52:57.392Z,68.65
2018-04-27T00:55:26.749Z,68.01
2018-04-27T00:57:56.064Z,67.93
2018-04-27T01:00:25.417Z,68.13
2018-04-27T01:02:55.530Z,68.21
2018-04-27T01:05:25.626Z,67.62
2018-04-27T01:07:54.942Z,67.96
2018-04-27T01:10:24.299Z,68.06
2018-04-27T01:12:53.623Z,67.35
2018-04-27T01:15:22.931Z,68.05
2018-04-27T01:17:52.277Z,67.79
2018-04-27T01:20:22.399Z,67.70
2018-04-27T01:22:52.515Z,66.96
2018-04-27T01:25:22.601Z,67.49
2018-04-27T01:27:51.944Z,68.05
2018-04-27T01:30:21.280Z,68.89
2018-04-27T01:32:50.603Z,67.85
2018-04-27T01:35:19.956Z,68.54
2018-04-27T01:37:49.307Z,69.71
2018-04-27T01:40:18.719Z,68.65
2018-04-27T01:42:50.044Z,67.93
2018-04-27T01:45:19.371Z,67.55
2018-04-27T01:47:48.732Z,68.24
2018-04-27T01:50:18.077Z,68.78
2018-04-27T01:52:47.419Z,68.32
2018-04-27T01:55:17.519Z,68.44
2018-04-27T01:57:46.861Z,66.86
2018-04-27T02:00:16.204Z,67.71
2018-04-27T02:02:45.531Z,68.40
2018-04-27T02:05:14.912Z,67.30
2018-04-27T02:07:44.246Z,68.01
2018-04-27T02:10:14.350Z,65.89
2018-04-27T02:12:44.443Z,65.29
2018-04-27T02:15:13.768Z,66.61
2018-04-27T02:17:43.052Z,66.93
2018-04-27T02:20:12.359Z,65.95
2018-04-27T02:22:41.660Z,66.74
2018-04-27T02:25:10.991Z,67.39
2018-04-27T02:27:41.063Z,67.21
2018-04-27T02:30:10.369Z,66.02
2018-04-27T02:32:39.686Z,66.27
2018-04-27T02:35:08.984Z,67.02
2018-04-27T02:37:38.281Z,66.36
2018-04-27T02:40:07.580Z,66.43
2018-04-27T02:42:36.882Z,65.44
2018-04-27T02:45:06.212Z,66.10
2018-04-27T02:47:35.515Z,65.27
2018-04-27T02:50:04.814Z,65.81
2018-04-27T02:52:34.116Z,66.67
2018-04-27T02:55:03.440Z,65.71
2018-04-27T02:57:33.508Z,66.28
2018-04-27T03:00:02.789Z,65.39
2018-04-27T03:02:32.134Z,65.70
2018-04-27T03:05:01.433Z,65.43
2018-04-27T03:07:30.767Z,65.51
2018-04-27T03:10:00.829Z,65.72
2018-04-27T03:12:30.183Z,64.56
2018-04-27T03:14:59.463Z,65.38
2018-04-27T03:17:28.751Z,66.23
2018-04-27T03:19:58.064Z,64.78
2018-04-27T03:22:27.356Z,65.34
2018-04-27T03:24:56.687Z,65.99
2018-04-27T03:27:25.982Z,67.52
2018-04-27T03:29:55.290Z,65.20
2018-04-27T03:32:24.617Z,65.51
2018-04-27T03:34:53.896Z,64.14
2018-04-27T03:37:23.980Z,65.88
2018-04-27T03:39:53.330Z,64.60
2018-04-27T03:42:23.401Z,65.07
2018-04-27T03:44:52.701Z,65.39
2018-04-27T03:47:22.006Z,63.66
2018-04-27T03:49:51.296Z,63.54
2018-04-27T03:52:20.614Z,65.21
2018-04-27T03:54:49.916Z,64.00
2018-04-27T03:57:19.245Z,65.48
2018-04-27T04:00:06.200Z,66.11
2018-04-27T04:02:53.161Z,64.53
2018-04-27T04:05:29.083Z,65.98
2018-04-27T04:07:58.386Z,65.71
2018-04-27T04:10:27.683Z,66.01
2018-04-27T04:12:57.003Z,66.36
2018-04-27T04:15:26.588Z,67.07
2018-04-27T04:17:55.881Z,66.15
2018-04-27T04:20:25.194Z,66.73
2018-04-27T04:22:54.497Z,67.86
2018-04-27T04:25:23.786Z,68.33
2018-04-27T04:27:53.111Z,68.24
2018-04-27T04:30:24.195Z,68.18
2018-04-27T04:32:53.522Z,68.29
2018-04-27T04:35:23.601Z,68.36
2018-04-27T04:37:53.118Z,68.48
2018-04-27T04:40:22.454Z,69.22
2018-04-27T04:42:52.529Z,69.10
2018-04-27T04:45:21.836Z,68.64
2018-04-27T04:47:51.181Z,68.93
2018-04-27T04:50:21.225Z,68.97
2018-04-27T04:52:50.529Z,69.24
2018-04-27T04:55:19.889Z,69.88
2018-04-27T04:57:49.181Z,69.71
2018-04-27T05:00:18.490Z,68.83
2018-04-27T05:02:47.872Z,68.40
2018-04-27T05:05:17.909Z,68.32
2018-04-27T05:07:47.212Z,67.65
2018-04-27T05:10:16.532Z,68.19
2018-04-27T05:12:45.826Z,68.25
2018-04-27T05:15:15.906Z,68.47
2018-04-27T05:17:45.198Z,68.52
2018-04-27T05:20:14.280Z,68.08
2018-04-27T05:22:43.574Z,67.68
2018-04-27T05:25:12.876Z,67.41
2018-04-27T05:27:42.190Z,67.83
2018-04-27T05:30:12.275Z,66.82
2018-04-27T05:32:41.577Z,66.69
2018-04-27T05:35:10.878Z,66.30
2018-04-27T05:37:40.935Z,66.00
2018-04-27T05:40:10.235Z,65.28
2018-04-27T05:42:39.565Z,65.22
2018-04-27T05:45:08.865Z,64.15
2018-04-27T05:47:38.178Z,63.96
2018-04-27T05:50:07.508Z,63.51
2018-04-27T05:52:36.823Z,63.46
2018-04-27T05:55:06.878Z,63.88
2018-04-27T05:57:36.166Z,63.60
2018-04-27T06:00:05.469Z,62.96
2018-04-27T06:02:34.790Z,62.84
2018-04-27T06:05:04.152Z,62.47
2018-04-27T06:07:34.201Z,62.36
2018-04-27T06:10:03.621Z,61.92
2018-04-27T06:12:32.823Z,60.31
2018-04-27T06:15:02.125Z,60.54
2018-04-27T06:17:31.428Z,60.26
2018-04-27T06:20:00.723Z,60.37
2018-04-27T06:22:30.022Z,59.45
2018-04-27T06:24:59.338Z,60.95
2018-04-27T06:27:28.648Z,57.75
2018-04-27T06:29:58.652Z,57.99
2018-04-27T06:32:27.985Z,58.74
2018-04-27T06:34:57.294Z,56.92
2018-04-27T06:37:26.646Z,55.94
2018-04-27T06:39:55.965Z,56.75
2018-04-27T06:42:25.251Z,57.92
2018-04-27T06:44:54.562Z,55.53
2018-04-27T06:47:24.041Z,55.05
2018-04-27T06:49:53.362Z,54.24
2018-04-27T06:52:22.797Z,53.50
2018-04-27T06:54:52.819Z,50.73
2018-04-27T06:57:23.443Z,52.51
2018-04-27T06:59:52.775Z,51.29
2018-04-27T07:02:22.858Z,51.88
2018-04-27T07:04:52.167Z,50.82
2018-04-27T07:07:21.483Z,50.83
2018-04-27T07:09:50.806Z,50.10
2018-04-27T07:12:20.935Z,48.80
2018-04-27T07:14:50.234Z,50.22
2018-04-27T07:17:20.351Z,49.63
2018-04-27T07:19:49.645Z,47.21
2018-04-27T07:22:18.970Z,47.79
2018-04-27T07:24:49.078Z,47.67
2018-04-27T07:27:18.380Z,46.84
2018-04-27T07:29:48.439Z,46.56
2018-04-27T07:32:18.356Z,46.05
2018-04-27T07:34:47.676Z,45.94
2018-04-27T07:37:17.003Z,45.13
2018-04-27T07:39:46.388Z,44.85
2018-04-27T07:42:15.606Z,43.21
2018-04-27T07:44:44.946Z,43.38
2018-04-27T07:47:15.011Z,42.51
2018-04-27T07:49:44.352Z,42.41
2018-04-27T07:52:14.418Z,42.59
2018-04-27T07:54:43.724Z,42.62
2018-04-27T07:57:13.046Z,41.71
2018-04-27T07:59:42.347Z,40.95
2018-04-27T08:02:11.655Z,42.73
2018-04-27T08:04:40.992Z,38.89
2018-04-27T08:07:11.107Z,39.66
2018-04-27T08:09:40.431Z,39.52
2018-04-27T08:12:09.828Z,40.15
2018-04-27T08:14:39.072Z,39.66
2018-04-27T08:17:08.399Z,39.64
2018-04-27T08:19:37.700Z,39.17
2018-04-27T08:22:07.020Z,40.63
2018-04-27T08:24:37.123Z,39.86
2018-04-27T08:27:06.422Z,39.97
2018-04-27T08:29:35.761Z,40.45
2018-04-27T08:32:05.822Z,40.60
2018-04-27T08:34:35.163Z,40.11
2018-04-27T08:37:05.249Z,38.96
2018-04-27T08:39:34.589Z,38.27
2018-04-27T08:42:03.935Z,37.63
2018-04-27T08:44:34.100Z,37.73
2018-04-27T08:47:03.965Z,37.81
2018-04-27T08:49:33.283Z,37.61
2018-04-27T08:52:02.617Z,37.48
2018-04-27T08:54:32.473Z,36.13
2018-04-27T08:57:01.789Z,36.54
2018-04-27T08:59:31.117Z,37.22
2018-04-27T09:02:00.466Z,36.55
2018-04-27T09:04:30.557Z,36.77
2018-04-27T09:06:59.884Z,36.03
2018-04-27T09:09:29.971Z,36.52
2018-04-27T09:11:59.279Z,36.42
2018-04-27T09:14:28.582Z,35.70
2018-04-27T09:16:57.929Z,35.99
2018-04-27T09:19:27.989Z,34.80
2018-04-27T09:21:57.318Z,35.62
2018-04-27T09:24:26.646Z,34.82
2018-04-27T09:26:56.817Z,34.03
2018-04-27T09:29:26.058Z,33.84
2018-04-27T09:31:55.372Z,33.36
2018-04-27T09:34:24.776Z,33.46
2018-04-27T09:36:54.854Z,33.30
2018-04-27T09:39:24.174Z,34.53
2018-04-27T09:41:53.488Z,33.25
2018-04-27T09:44:23.100Z,34.13
2018-04-27T09:46:52.417Z,33.36
2018-04-27T09:49:22.498Z,34.03
2018-04-27T09:51:51.812Z,34.15
2018-04-27T09:54:21.118Z,34.05
2018-04-27T09:56:50.434Z,34.28
2018-04-27T09:59:20.523Z,34.09
2018-04-27T10:01:49.851Z,34.00
2018-04-27T10:04:19.927Z,33.50
2018-04-27T10:06:49.226Z,33.03
2018-04-27T10:09:18.576Z,32.62
2018-04-27T10:11:47.889Z,31.79
2018-04-27T10:14:17.965Z,30.95
2018-04-27T10:16:47.313Z,31.65
2018-04-27T10:19:17.376Z,30.80
2018-04-27T10:21:46.697Z,31.54
2018-04-27T10:24:16.007Z,32.36
2018-04-27T10:26:45.329Z,31.88
2018-04-27T10:29:15.398Z,31.14
2018-04-27T10:31:44.727Z,30.07
2018-04-27T10:34:14.030Z,30.02
2018-04-27T10:36:43.330Z,30.12
2018-04-27T10:39:12.664Z,30.23
2018-04-27T10:41:42.725Z,30.78
2018-04-27T10:44:12.021Z,29.02
2018-04-27T10:46:41.338Z,29.21
2018-04-27T10:49:10.654Z,28.53
2018-04-27T10:51:39.951Z,28.44
2018-04-27T10:54:09.659Z,28.65
2018-04-27T10:56:38.945Z,27.03
2018-04-27T10:59:08.265Z,27.28
2018-04-27T11:01:37.588Z,26.30
2018-04-27T11:04:07.549Z,27.87
2018-04-27T11:06:36.866Z,27.41
2018-04-27T11:09:06.185Z,28.01
2018-04-27T11:11:35.577Z,27.84
2018-04-27T11:14:04.821Z,28.06
2018-04-27T11:16:34.120Z,28.84
2018-04-27T11:19:03.436Z,26.63
2018-04-27T11:21:33.521Z,25.90
2018-04-27T11:24:02.934Z,26.29
2018-04-27T11:26:32.935Z,26.69
2018-04-27T11:29:02.259Z,27.74
2018-04-27T11:31:31.575Z,25.52
2018-04-27T11:34:00.869Z,25.26
2018-04-27T11:36:30.181Z,25.59
2018-04-27T11:38:59.503Z,24.72
2018-04-27T11:41:28.939Z,24.77
2018-04-27T11:43:58.243Z,24.56
2018-04-27T11:46:27.569Z,25.22
2018-04-27T11:48:56.865Z,25.42
2018-04-27T11:51:26.188Z,24.95
2018-04-27T11:53:55.491Z,24.33
2018-04-27T11:56:24.822Z,24.25
2018-04-27T11:58:54.896Z,22.83
2018-04-27T12:01:24.206Z,22.86
2018-04-27T12:03:53.516Z,22.55
2018-04-27T12:06:22.823Z,22.43
2018-04-27T12:08:52.138Z,23.49
2018-04-27T12:11:22.220Z,24.09
2018-04-27T12:13:51.541Z,24.39
2018-04-27T12:16:20.835Z,24.28
2018-04-27T12:18:50.134Z,24.62
2018-04-27T12:21:19.464Z,24.53
2018-04-27T12:23:48.758Z,24.54
2018-04-27T12:26:18.089Z,24.90
2018-04-27T12:28:48.174Z,25.11
2018-04-27T12:31:17.621Z,24.97
2018-04-27T12:33:47.568Z,25.35
2018-04-27T12:36:16.875Z,25.05
2018-04-27T12:38:46.244Z,24.81
2018-04-27T12:41:15.520Z,24.72
2018-04-27T12:43:45.591Z,25.88
2018-04-27T12:46:14.890Z,25.27
2018-04-27T12:48:44.245Z,25.47
2018-04-27T12:51:13.572Z,25.48
2018-04-27T12:53:43.641Z,25.61
2018-04-27T12:56:12.962Z,25.96
2018-04-27T12:58:42.262Z,25.58
2018-04-27T13:01:11.562Z,25.62
2018-04-27T13:03:40.884Z,24.82
2018-04-27T13:06:10.942Z,24.51
2018-04-27T13:08:40.276Z,24.23
2018-04-27T13:11:09.575Z,23.90
2018-04-27T13:13:39.885Z,23.60
2018-04-27T13:16:09.203Z,23.75
2018-04-27T13:18:38.543Z,24.02
2018-04-27T13:21:07.859Z,23.83
2018-04-27T13:23:37.159Z,24.08
2018-04-27T13:26:06.463Z,24.85
2018-04-27T13:28:35.782Z,24.64
2018-04-27T13:31:05.083Z,23.83
2018-04-27T13:33:34.398Z,24.80
2018-04-27T13:36:03.736Z,24.93
2018-04-27T13:38:33.053Z,25.37
2018-04-27T13:41:02.368Z,24.58
2018-04-27T13:43:32.426Z,25.14
2018-04-27T13:46:01.741Z,24.88
2018-04-27T13:48:31.056Z,25.51
2018-04-27T13:51:00.370Z,25.44
2018-04-27T13:53:29.702Z,25.14
2018-04-27T13:55:59.304Z,25.28
2018-04-27T13:58:29.358Z,25.69
2018-04-27T14:00:58.698Z,25.03
2018-04-27T14:03:28.010Z,24.64
2018-04-27T14:05:57.314Z,23.61
2018-04-27T14:08:26.629Z,23.81
2018-04-27T14:10:55.947Z,22.89
2018-04-27T14:13:26.007Z,22.54
2018-04-27T14:15:56.092Z,22.58
2018-04-27T14:18:25.421Z,22.34
2018-04-27T14:20:54.729Z,21.44
2018-04-27T14:23:25.601Z,23.01
2018-04-27T14:25:54.890Z,22.77
2018-04-27T14:28:24.181Z,22.44
2018-04-27T14:30:53.524Z,23.68
2018-04-27T14:33:22.810Z,23.33
2018-04-27T14:35:52.149Z,23.11
2018-04-27T14:38:22.015Z,21.34
2018-04-27T14:40:51.326Z,22.14
2018-04-27T14:43:20.647Z,22.21
2018-04-27T14:45:50.729Z,22.46
2018-04-27T14:48:20.061Z,22.76
2018-04-27T14:50:49.347Z,23.31
2018-04-27T14:53:18.677Z,23.52
2018-04-27T14:55:47.994Z,24.07
2018-04-27T14:58:17.295Z,24.45
2018-04-27T15:00:47.379Z,24.07
2018-04-27T15:03:21.978Z,24.94
2018-04-27T15:05:56.788Z,24.58
2018-04-27T15:08:31.315Z,24.94
2018-04-27T15:11:05.957Z,24.77
2018-04-27T15:13:40.643Z,24.92
2018-04-27T15:16:15.210Z,25.35
2018-04-27T15:18:49.877Z,26.38
2018-04-27T15:21:24.461Z,26.49
2018-04-27T15:23:59.680Z,26.14
2018-04-27T15:26:34.763Z,26.23
2018-04-27T15:29:09.394Z,26.39
2018-04-27T15:31:44.007Z,25.92
2018-04-27T15:34:18.542Z,26.39
2018-04-27T15:36:52.949Z,26.11
2018-04-27T15:39:27.379Z,25.71
2018-04-27T15:42:01.998Z,25.73
2018-04-27T15:44:36.746Z,25.80
2018-04-27T15:47:11.280Z,26.45
2018-04-27T15:49:45.977Z,26.86
2018-04-27T15:52:20.634Z,26.46
2018-04-27T15:54:55.222Z,27.03
2018-04-27T15:57:29.915Z,26.47
2018-04-27T16:00:04.556Z,25.83
2018-04-27T16:02:38.982Z,25.42
2018-04-27T16:05:13.554Z,25.30
2018-04-27T16:07:47.971Z,25.14
2018-04-27T16:10:22.622Z,25.33
2018-04-27T16:15:55.306Z,25.62
2018-04-27T16:18:29.862Z,25.19
2018-04-27T16:21:04.537Z,24.90
2018-04-27T16:23:39.205Z,25.09
2018-04-27T16:26:14.518Z,25.37
2018-04-27T16:28:49.134Z,25.17
2018-04-27T16:31:23.792Z,24.42
2018-04-27T16:33:58.410Z,25.14
2018-04-27T16:36:33.783Z,25.26
2018-04-27T16:39:08.274Z,24.73
2018-04-27T16:41:42.751Z,24.71
2018-04-27T16:44:17.410Z,24.57
2018-04-27T16:46:52.046Z,24.81
2018-04-27T16:49:27.229Z,25.04
2018-04-27T16:52:01.704Z,25.75
2018-04-27T16:54:36.397Z,25.82
2018-04-27T16:57:10.810Z,25.84
2018-04-27T16:59:45.363Z,25.97
2018-04-27T17:02:20.130Z,26.03
2018-04-27T17:04:55.477Z,26.56
2018-04-27T17:07:30.817Z,26.69
2018-04-27T17:10:05.350Z,26.68
2018-04-27T17:12:39.934Z,26.59
2018-04-27T17:15:14.497Z,27.30
2018-04-27T17:17:49.938Z,27.15
2018-04-27T17:20:24.565Z,26.92
2018-04-27T17:22:59.966Z,26.93
2018-04-27T17:25:34.608Z,27.08
2018-04-27T17:28:09.270Z,27.54
2018-04-27T17:30:43.857Z,27.94
2018-04-27T17:33:18.794Z,27.75
2018-04-27T17:35:53.307Z,27.89
2018-04-27T17:38:28.487Z,27.87
2018-04-27T17:41:03.028Z,28.31
2018-04-27T17:43:37.701Z,28.81
2018-04-27T17:46:12.268Z,28.84
2018-04-27T17:48:46.957Z,29.10
2018-04-27T17:51:21.641Z,28.85
2018-04-27T17:53:56.326Z,29.12
2018-04-27T17:59:04.824Z,29.46
2018-04-27T18:01:39.395Z,29.93
2018-04-27T18:04:14.063Z,30.02
2018-04-27T18:06:49.300Z,30.03
2018-04-27T18:09:23.866Z,30.22
2018-04-27T18:11:59.107Z,30.74
2018-04-27T18:14:33.607Z,31.14
2018-04-27T18:17:08.187Z,31.63
2018-04-27T18:19:42.865Z,32.08
2018-04-27T18:22:17.454Z,32.04
2018-04-27T18:24:52.114Z,32.20
2018-04-27T18:27:26.506Z,32.63
2018-04-27T18:30:01.139Z,32.72
2018-04-27T18:32:35.812Z,33.12
2018-04-27T18:35:10.191Z,33.39
2018-04-27T18:37:45.531Z,33.62
2018-04-27T18:40:20.131Z,33.97
2018-04-27T18:42:54.780Z,34.20
2018-04-27T18:45:29.139Z,34.19
2018-04-27T18:48:09.420Z,34.52
2018-04-27T18:50:44.700Z,34.85
2018-04-27T18:53:19.145Z,34.86
2018-04-27T18:55:53.683Z,34.92
2018-04-27T18:58:28.343Z,35.17
2018-04-27T19:01:02.876Z,35.37
2018-04-27T19:03:37.564Z,36.01
2018-04-27T19:06:12.114Z,36.50
2018-04-27T19:08:46.639Z,37.24
2018-04-27T19:11:22.028Z,38.11
2018-04-27T19:13:56.498Z,39.13
2018-04-27T19:16:25.512Z,40.22
2018-04-27T19:18:56.802Z,40.74
2018-04-27T19:21:26.114Z,41.21
2018-04-27T19:23:57.364Z,41.36
2018-04-27T19:26:27.613Z,41.76
2018-04-27T19:28:57.708Z,42.96
2018-04-27T19:31:26.999Z,42.68
2018-04-27T19:33:57.177Z,42.99
2018-04-27T19:36:26.489Z,43.11
2018-04-27T19:38:55.814Z,43.04
2018-04-27T19:41:25.122Z,42.89
2018-04-27T19:43:54.438Z,43.25
2018-04-27T19:46:24.297Z,44.30
2018-04-27T19:48:53.599Z,44.42
2018-04-27T19:51:22.893Z,44.26
2018-04-27T19:53:52.222Z,44.41
2018-04-27T19:56:21.509Z,44.40
2018-04-27T19:58:50.940Z,44.70
2018-04-27T20:01:20.271Z,44.26
2018-04-27T20:03:49.566Z,44.61
2018-04-27T20:06:18.867Z,44.42
2018-04-27T20:08:48.202Z,43.95
2018-04-27T20:11:18.387Z,44.28
2018-04-27T20:13:47.661Z,44.61
2018-04-27T20:16:30.511Z,44.34
2018-04-27T20:18:59.848Z,44.36
2018-04-27T20:21:29.928Z,44.12
2018-04-27T20:24:04.010Z,44.15
2018-04-27T20:26:33.341Z,44.58
2018-04-27T20:29:03.198Z,45.26
2018-04-27T20:31:32.517Z,45.48
2018-04-27T20:34:01.807Z,45.70
2018-04-27T20:36:31.923Z,45.56
2018-04-27T20:39:02.031Z,45.87
2018-04-27T20:41:31.353Z,45.72
2018-04-27T20:44:01.488Z,45.38
2018-04-27T20:46:31.498Z,45.63
2018-04-27T20:49:01.571Z,46.23
2018-04-27T20:51:30.902Z,46.47
2018-04-27T20:54:01.786Z,47.62
2018-04-27T20:56:47.592Z,47.43
2018-04-27T20:59:16.899Z,47.28
2018-04-27T21:01:46.253Z,47.27
2018-04-27T21:04:16.324Z,47.27
2018-04-27T21:06:45.699Z,47.54
2018-04-27T21:09:14.953Z,48.12
2018-04-27T21:11:45.556Z,48.08
2018-04-27T21:14:14.988Z,47.86
2018-04-27T21:16:44.201Z,47.64
2018-04-27T21:19:13.496Z,47.79
2018-04-27T21:21:43.591Z,48.22
2018-04-27T21:24:12.939Z,49.64
2018-04-27T21:26:43.022Z,48.93
2018-04-27T21:29:27.107Z,49.20
2018-04-27T21:31:57.178Z,49.40
2018-04-27T21:34:26.505Z,49.75
2018-04-27T21:36:56.467Z,50.12
2018-04-27T21:39:26.662Z,49.45
2018-04-27T21:42:00.622Z,49.66
2018-04-27T21:44:31.478Z,50.16
2018-04-27T21:47:26.179Z,50.49
2018-04-27T21:49:55.499Z,51.37
2018-04-27T21:52:27.673Z,50.73
2018-04-27T21:54:57.765Z,51.38
2018-04-27T21:58:06.597Z,51.80
2018-04-27T22:00:35.919Z,51.15
2018-04-27T22:03:11.791Z,51.89
2018-04-27T22:05:50.166Z,51.78
2018-04-27T22:11:47.383Z,51.39
2018-04-27T22:14:27.053Z,51.27
2018-04-27T22:20:08.603Z,50.05
2018-04-27T22:22:38.913Z,49.87
2018-04-27T22:25:15.974Z,49.96
2018-04-27T22:27:46.681Z,49.16
2018-04-27T22:30:22.046Z,49.32
2018-04-27T22:32:51.383Z,49.09
2018-04-27T22:35:36.440Z,48.53
2018-04-27T22:38:05.758Z,47.57
2018-04-27T22:40:39.773Z,47.21
2018-04-27T22:43:23.971Z,46.45
2018-04-27T22:46:03.457Z,46.21
2018-04-27T22:48:41.604Z,46.43
2018-04-27T22:51:30.759Z,45.62
2018-04-27T22:54:02.433Z,45.51
2018-04-27T22:59:32.424Z,44.82
2018-04-27T23:02:21.214Z,45.15
2018-04-27T23:04:58.322Z,44.27
2018-04-27T23:07:37.218Z,44.26
2018-04-27T23:10:07.287Z,44.02
2018-04-27T23:12:52.116Z,44.25
2018-04-27T23:15:21.449Z,44.07
2018-04-27T23:17:51.518Z,44.19
2018-04-27T23:20:24.579Z,43.71
2018-04-27T23:22:59.718Z,43.88
2018-04-27T23:25:29.059Z,43.65
2018-04-27T23:27:59.063Z,43.58
2018-04-27T23:30:31.968Z,44.04
2018-04-27T23:33:01.266Z,43.62
2018-04-27T23:35:30.588Z,43.46
2018-04-27T23:37:59.919Z,43.18
2018-04-27T23:40:30.025Z,43.52
2018-04-27T23:42:59.325Z,43.18
2018-04-27T23:45:28.643Z,43.54
2018-04-27T23:47:58.707Z,43.54
2018-04-27T23:50:28.035Z,43.83
2018-04-27T23:52:57.353Z,43.56
2018-04-27T23:55:26.668Z,43.35
2018-04-27T23:57:56.780Z,44.26
